Time;durP1;ratioP1;P1;durP2;ratioP2;P2;SDS_P1;SDS_P2;PMS_P1;PMS_P2;Temp;Humidity;BMP_temperature;BMP_pressure;BME280_temperature;BME280_humidity;BME280_pressure;Samples;Min_cycle;Max_cycle;Signal;HPM_P1;HPM_P2
2022/03/07 00:01:34;;;;;;;13.02;5.57;;;5.20;70.10;;;;;;5010851;28;20487;-70
2022/03/07 00:04:02;;;;;;;10.45;5.32;;;5.10;69.90;;;;;;5010614;28;20029;-72
2022/03/07 00:06:27;;;;;;;8.82;5.40;;;5.20;70.20;;;;;;5011104;28;20028;-71
2022/03/07 00:08:53;;;;;;;7.88;5.05;;;5.20;70.20;;;;;;5010796;28;20564;-71
2022/03/07 00:11:34;;;;;;;12.70;5.45;;;5.20;70.00;;;;;;5010672;28;20034;-71
2022/03/07 00:13:59;;;;;;;13.27;5.07;;;5.40;69.90;;;;;;5010583;28;20127;-71
2022/03/07 00:16:29;;;;;;;10.80;5.25;;;5.30;69.80;;;;;;5010664;28;20061;-69
2022/03/07 00:18:54;;;;;;;8.82;4.50;;;5.30;69.00;;;;;;5010523;28;20105;-70
2022/03/07 00:21:27;;;;;;;7.45;4.53;;;5.30;68.20;;;;;;5010920;28;20152;-68
2022/03/07 00:23:53;;;;;;;11.18;5.60;;;5.30;68.60;;;;;;5009512;28;20745;-70
2022/03/07 00:26:28;;;;;;;12.40;5.53;;;5.20;69.10;;;;;;5010411;28;20077;-69
2022/03/07 00:28:53;;;;;;;10.63;5.80;;;5.30;69.70;;;;;;5010373;28;20120;-69
2022/03/07 00:31:22;;;;;;;9.90;5.70;;;5.20;69.20;;;;;;5009356;28;20375;-70
2022/03/07 00:33:48;;;;;;;9.48;5.43;;;5.20;69.40;;;;;;5010172;28;20124;-69
2022/03/07 00:36:29;;;;;;;15.45;6.10;;;5.30;69.30;;;;;;5010767;28;20073;-70
2022/03/07 00:38:54;;;;;;;12.65;7.45;;;5.40;68.70;;;;;;5010285;28;20039;-70
2022/03/07 00:41:20;;;;;;;14.43;6.95;;;5.60;68.00;;;;;;5010207;28;20503;-70
2022/03/07 00:43:46;;;;;;;9.40;5.50;;;5.50;67.50;;;;;;5010357;28;20120;-70
2022/03/07 00:46:20;;;;;;;9.70;5.50;;;5.60;68.10;;;;;;5010151;28;20049;-70
2022/03/07 00:48:46;;;;;;;12.20;5.80;;;5.40;69.60;;;;;;5011709;28;20140;-70
2022/03/07 00:51:27;;;;;;;14.45;6.03;;;5.40;69.60;;;;;;5014368;28;20574;-70
2022/03/07 00:53:52;;;;;;;11.30;5.63;;;5.30;69.50;;;;;;5013953;28;20045;-69
2022/03/07 00:56:30;;;;;;;13.98;5.85;;;5.30;69.70;;;;;;5013912;28;20117;-70
2022/03/07 00:58:56;;;;;;;13.43;5.80;;;5.30;70.30;;;;;;5013873;28;20064;-69
2022/03/07 01:01:21;;;;;;;14.57;5.82;;;5.30;70.50;;;;;;5013655;28;20053;-70
2022/03/07 01:03:47;;;;;;;14.70;5.35;;;5.20;70.60;;;;;;5013527;28;20026;-70
2022/03/07 01:06:24;;;;;;;14.88;6.55;;;5.10;71.30;;;;;;5014117;28;20095;-69
2022/03/07 01:08:50;;;;;;;9.55;6.03;;;5.20;71.10;;;;;;5013429;28;20030;-70
2022/03/07 01:11:25;;;;;;;12.13;6.20;;;5.20;70.60;;;;;;5013512;28;20568;-70
2022/03/07 01:13:51;;;;;;;10.02;6.40;;;5.20;71.00;;;;;;5013430;28;20551;-70
2022/03/07 01:16:19;;;;;;;10.85;6.25;;;5.20;71.20;;;;;;5013261;28;20117;-69
2022/03/07 01:18:44;;;;;;;13.23;6.55;;;5.30;71.00;;;;;;5013414;28;20475;-70
2022/03/07 01:21:19;;;;;;;15.30;6.55;;;5.20;71.40;;;;;;5013769;28;20028;-69
2022/03/07 01:23:45;;;;;;;12.32;6.38;;;5.20;71.80;;;;;;5013392;28;20040;-70
2022/03/07 01:26:28;;;;;;;14.05;6.35;;;5.20;71.40;;;;;;5013169;28;20038;-69
2022/03/07 01:28:54;;;;;;;17.70;7.07;;;5.30;71.10;;;;;;5013130;28;20368;-71
2022/03/07 01:31:19;;;;;;;9.70;5.85;;;5.20;69.50;;;;;;5013172;28;20034;-69
2022/03/07 01:33:45;;;;;;;13.38;6.20;;;5.30;69.50;;;;;;5012974;28;20033;-70
2022/03/07 01:36:29;;;;;;;11.07;5.65;;;5.30;69.40;;;;;;5013467;28;20113;-70
2022/03/07 01:38:54;;;;;;;15.13;6.00;;;5.30;69.50;;;;;;5013055;28;20038;-69
2022/03/07 01:41:20;;;;;;;13.45;6.18;;;5.40;69.50;;;;;;5012989;28;20526;-70
2022/03/07 01:43:45;;;;;;;15.45;6.57;;;5.50;68.40;;;;;;5013146;28;20044;-70
2022/03/07 01:46:23;;;;;;;13.55;6.65;;;5.50;68.20;;;;;;5012608;28;20042;-70
2022/03/07 01:48:49;;;;;;;;;;;5.60;68.00;;;;;;5013239;28;20508;-70
2022/03/07 01:51:33;;;;;;;16.85;6.32;;;5.60;67.80;;;;;;5013195;28;19912;-69
2022/03/07 01:53:59;;;;;;;12.32;6.75;;;5.60;67.70;;;;;;5012584;28;20041;-69
2022/03/07 01:56:30;;;;;;;13.68;6.63;;;5.60;67.80;;;;;;5012662;28;20018;-70
2022/03/07 01:58:56;;;;;;;15.05;6.57;;;5.60;67.70;;;;;;5012465;28;20092;-71
2022/03/07 02:01:22;;;;;;;10.60;6.75;;;5.50;67.90;;;;;;5012582;28;20046;-70
2022/03/07 02:03:48;;;;;;;11.90;6.30;;;5.50;68.10;;;;;;5012529;28;20042;-70
2022/03/07 02:06:25;;;;;;;10.05;5.78;;;5.50;68.20;;;;;;5012860;28;20443;-70
2022/03/07 02:08:52;;;;;;;11.43;6.63;;;5.50;68.30;;;;;;5012414;28;20324;-70
2022/03/07 02:11:36;;;;;;;16.50;7.10;;;5.50;68.20;;;;;;5012557;28;20022;-70
2022/03/07 02:14:20;;;;;;;13.90;6.95;;;5.50;68.30;;;;;;5012375;28;20129;-71
2022/03/07 02:16:46;;;;;;;12.50;7.13;;;5.50;68.30;;;;;;5012363;28;20490;-71
2022/03/07 02:19:13;;;;;;;11.00;6.50;;;5.60;69.00;;;;;;5012213;28;20038;-71
2022/03/07 02:21:43;;;;;;;13.05;6.95;;;5.60;68.00;;;;;;5012201;28;20030;-70
2022/03/07 02:24:09;;;;;;;13.15;6.38;;;5.60;68.00;;;;;;5012574;28;20033;-71
2022/03/07 02:26:34;;;;;;;13.10;6.55;;;5.60;68.30;;;;;;5012086;28;20034;-71
2022/03/07 02:29:00;;;;;;;13.73;6.90;;;5.60;68.40;;;;;;5012148;28;20030;-71
2022/03/07 02:31:31;;;;;;;12.25;6.68;;;5.60;68.20;;;;;;5010826;28;20032;-69
2022/03/07 02:33:57;;;;;;;11.55;6.32;;;5.60;68.30;;;;;;5011752;28;20025;-69
2022/03/07 02:36:23;;;;;;;14.57;7.43;;;5.60;68.20;;;;;;5012115;28;20044;-69
2022/03/07 02:38:48;;;;;;;12.15;6.47;;;5.60;68.10;;;;;;5029659;28;20068;-69
2022/03/07 02:41:26;;;;;;;10.95;5.63;;;5.60;68.30;;;;;;5031431;28;20032;-70
2022/03/07 02:43:52;;;;;;;;;;;5.60;68.40;;;;;;5031997;28;20499;-71
2022/03/07 02:46:23;;;;;;;12.45;6.10;;;5.60;68.00;;;;;;5031239;28;19978;-71
2022/03/07 02:48:48;;;;;;;13.00;7.07;;;5.60;68.80;;;;;;5031533;28;20514;-70
2022/03/07 02:51:23;;;;;;;13.20;7.40;;;5.60;68.10;;;;;;5031767;28;20092;-70
2022/03/07 02:53:51;;;;;;;12.27;7.03;;;5.60;68.00;;;;;;5031367;28;20162;-70
2022/03/07 02:56:20;;;;;;;10.60;5.95;;;5.60;68.20;;;;;;5030549;28;20095;-70
2022/03/07 02:58:46;;;;;;;10.98;6.28;;;5.60;68.30;;;;;;5031280;28;20053;-70
2022/03/07 03:01:30;;;;;;;9.55;5.75;;;5.60;68.20;;;;;;5031504;28;20448;-70
2022/03/07 03:03:55;;;;;;;10.93;6.20;;;5.60;68.20;;;;;;5031079;28;20018;-71
2022/03/07 03:06:30;;;;;;;14.90;7.07;;;5.60;68.10;;;;;;5031481;28;20034;-71
2022/03/07 03:08:56;;;;;;;13.80;6.78;;;5.50;68.20;;;;;;5030046;28;20107;-69
2022/03/07 03:11:24;;;;;;;13.02;6.40;;;5.50;68.00;;;;;;5029307;28;20087;-71
2022/03/07 03:13:50;;;;;;;11.35;5.80;;;5.50;68.10;;;;;;5031115;28;20107;-70
2022/03/07 03:16:27;;;;;;;9.48;5.88;;;5.50;68.00;;;;;;5030974;28;20077;-70
2022/03/07 03:18:53;;;;;;;9.82;5.35;;;5.60;68.10;;;;;;5029905;28;20360;-69
2022/03/07 03:21:34;;;;;;;10.15;5.82;;;5.50;68.00;;;;;;5031611;28;20172;-69
2022/03/07 03:23:59;;;;;;;19.65;6.47;;;5.50;67.90;;;;;;5030962;28;20030;-70
2022/03/07 03:26:25;;;;;;;13.32;5.72;;;5.50;67.80;;;;;;5030869;28;20349;-69
2022/03/07 03:28:50;;;;;;;7.82;5.75;;;5.50;67.60;;;;;;5030699;28;20367;-69
2022/03/07 03:31:25;;;;;;;15.30;6.75;;;5.50;67.60;;;;;;5030639;28;20167;-69
2022/03/07 03:33:53;;;;;;;13.80;6.25;;;5.50;67.30;;;;;;5030672;28;20152;-69
2022/03/07 03:36:21;;;;;;;9.30;5.72;;;5.50;67.40;;;;;;5031215;28;20021;-69
2022/03/07 03:38:46;;;;;;;11.80;6.32;;;5.40;67.50;;;;;;5030475;28;20033;-69
2022/03/07 03:41:24;;;;;;;10.27;5.97;;;5.40;67.70;;;;;;5030770;28;20037;-70
2022/03/07 03:43:50;;;;;;;13.80;6.22;;;5.40;68.00;;;;;;5030668;28;20195;-69
2022/03/07 03:46:27;;;;;;;12.63;6.22;;;5.40;68.00;;;;;;5030223;28;20041;-70
2022/03/07 03:48:53;;;;;;;14.02;6.47;;;5.30;68.20;;;;;;5030519;28;20025;-71
2022/03/07 03:51:29;;;;;;;9.68;6.05;;;5.20;68.30;;;;;;5030899;28;20029;-69
2022/03/07 03:53:55;;;;;;;14.40;6.30;;;5.20;68.50;;;;;;5030458;28;20026;-70
2022/03/07 03:56:23;;;;;;;10.85;6.28;;;5.20;68.80;;;;;;5029513;28;20040;-70
2022/03/07 03:58:49;;;;;;;16.20;7.07;;;5.20;68.80;;;;;;5030346;28;20061;-68
2022/03/07 04:01:21;;;;;;;11.55;6.40;;;5.20;69.10;;;;;;5030321;28;20042;-70
2022/03/07 04:03:46;;;;;;;16.38;7.45;;;5.20;69.20;;;;;;5030340;28;20029;-70
2022/03/07 04:06:20;;;;;;;10.52;6.32;;;5.20;69.70;;;;;;5030608;28;20083;-70
2022/03/07 04:08:50;;;;;;;64.35;9.13;;;5.10;70.00;;;;;;5030380;28;20091;-70
2022/03/07 04:11:28;;;;;;;20.92;7.35;;;5.10;70.30;;;;;;5030400;28;20044;-70
2022/03/07 04:13:53;;;;;;;15.80;7.20;;;5.00;70.70;;;;;;5030506;28;20038;-69
2022/03/07 04:16:25;;;;;;;12.88;7.03;;;5.00;71.00;;;;;;5030158;28;20026;-70
2022/03/07 04:18:50;;;;;;;12.30;6.53;;;5.00;71.50;;;;;;5029985;28;20363;-70
2022/03/07 04:21:22;;;;;;;13.82;7.07;;;4.90;71.60;;;;;;5030709;28;20021;-70
2022/03/07 04:23:48;;;;;;;16.40;8.25;;;4.90;71.90;;;;;;5033402;28;20055;-70
2022/03/07 04:26:32;;;;;;;15.73;7.72;;;4.90;72.30;;;;;;5034085;28;20402;-69
2022/03/07 04:29:00;;;;;;;14.85;7.30;;;4.90;72.40;;;;;;5033094;28;20392;-70
2022/03/07 04:31:26;;;;;;;17.65;7.90;;;4.90;72.70;;;;;;5034167;28;20459;-70
2022/03/07 04:33:52;;;;;;;18.83;7.47;;;4.80;72.80;;;;;;5034070;28;20021;-71
2022/03/07 04:36:30;;;;;;;13.00;7.55;;;4.80;73.30;;;;;;5034344;28;20044;-70
2022/03/07 04:38:56;;;;;;;15.48;7.43;;;4.60;73.10;;;;;;5033846;28;20037;-71
2022/03/07 04:41:34;;;;;;;20.15;7.40;;;4.60;73.50;;;;;;5033811;28;20466;-71
2022/03/07 04:44:00;;;;;;;16.17;7.85;;;4.50;73.70;;;;;;5033639;28;20026;-70
2022/03/07 04:46:26;;;;;;;17.25;6.93;;;4.50;73.80;;;;;;5033652;28;20383;-70
2022/03/07 04:48:52;;;;;;;10.25;6.30;;;4.40;73.50;;;;;;5033726;28;20030;-70
2022/03/07 04:51:27;;;;;;;14.80;6.85;;;4.30;73.40;;;;;;5033958;28;20025;-71
2022/03/07 04:53:53;;;;;;;18.95;8.13;;;4.10;73.60;;;;;;5033557;28;20044;-71
2022/03/07 04:57:07;;;;;;;12.07;6.45;;;4.10;74.00;;;;;;5033450;28;20043;-69
2022/03/07 04:59:33;;;;;;;13.93;6.93;;;4.00;74.20;;;;;;5033610;28;20368;-69
2022/03/07 05:01:59;;;;;;;15.65;7.20;;;4.10;74.40;;;;;;5033472;28;20026;-69
2022/03/07 05:04:24;;;;;;;14.52;7.55;;;4.10;74.60;;;;;;5033442;28;20036;-71
2022/03/07 05:06:53;;;;;;;19.42;8.52;;;4.00;75.30;;;;;;5033130;28;20407;-70
2022/03/07 05:09:18;;;;;;;12.68;7.60;;;4.10;76.10;;;;;;5033705;28;20112;-70
2022/03/07 05:11:44;;;;;;;21.67;9.18;;;4.10;76.00;;;;;;5033245;28;20168;-70
2022/03/07 05:14:10;;;;;;;19.15;8.70;;;4.00;75.70;;;;;;5033032;28;20036;-70
2022/03/07 05:16:38;;;;;;;20.17;9.02;;;4.00;76.40;;;;;;5033178;28;20450;-70
2022/03/07 05:19:04;;;;;;;19.30;8.68;;;4.10;76.50;;;;;;5033344;28;20116;-69
2022/03/07 05:21:29;;;;;;;14.85;8.40;;;4.10;77.00;;;;;;5032425;28;20667;-70
2022/03/07 05:23:55;;;;;;;16.15;8.50;;;4.20;77.30;;;;;;5032940;28;20033;-70
2022/03/07 05:26:33;;;;;;;16.27;8.45;;;4.20;77.30;;;;;;5032818;28;20241;-70
2022/03/07 05:28:59;;;;;;;18.02;9.82;;;4.20;77.50;;;;;;5032935;28;20478;-69
2022/03/07 05:31:37;;;;;;;21.02;9.05;;;4.10;77.70;;;;;;5032844;28;20061;-69
2022/03/07 05:34:03;;;;;;;17.67;8.68;;;4.10;78.00;;;;;;5032204;28;20171;-70
2022/03/07 05:36:28;;;;;;;21.10;8.93;;;4.10;78.20;;;;;;5033522;28;20116;-69
2022/03/07 05:38:54;;;;;;;20.52;8.35;;;4.10;78.40;;;;;;5032944;28;20425;-69
2022/03/07 05:41:22;;;;;;;17.27;8.10;;;4.10;78.60;;;;;;5032765;28;20430;-70
2022/03/07 05:43:48;;;;;;;16.80;8.65;;;4.10;78.80;;;;;;5032865;28;20057;-71
2022/03/07 05:46:20;;;;;;;16.15;8.50;;;4.00;78.80;;;;;;5032329;28;20080;-70
2022/03/07 05:48:45;;;;;;;17.92;8.80;;;4.10;78.70;;;;;;5032542;28;20033;-68
2022/03/07 05:51:26;;;;;;;18.20;9.35;;;4.00;79.00;;;;;;5032872;28;20029;-69
2022/03/07 05:53:52;;;;;;;18.08;8.73;;;4.00;79.50;;;;;;5032363;28;20459;-70
2022/03/07 05:56:39;;;;;;;21.23;8.98;;;4.00;79.60;;;;;;5032501;28;20056;-70
2022/03/07 05:59:06;;;;;;;20.67;9.80;;;3.90;79.90;;;;;;5032464;28;20049;-70
2022/03/07 06:01:50;;;;;;;18.88;9.05;;;3.90;80.20;;;;;;5032408;28;20057;-70
2022/03/07 06:04:16;;;;;;;19.73;9.82;;;3.90;80.30;;;;;;5031164;28;20463;-70
2022/03/07 06:06:41;;;;;;;20.20;9.40;;;3.90;80.40;;;;;;5032111;28;20036;-70
2022/03/07 06:09:07;;;;;;;19.27;9.07;;;3.90;80.30;;;;;;5032529;28;20097;-70
2022/03/07 06:11:54;;;;;;;28.20;9.70;;;3.90;80.70;;;;;;5031045;28;20041;-70
2022/03/07 06:14:20;;;;;;;20.35;9.35;;;3.90;81.00;;;;;;5031989;28;20037;-70
2022/03/07 06:17:05;;;;;;;19.83;9.95;;;3.90;81.30;;;;;;5031929;28;20029;-73
2022/03/07 06:19:30;;;;;;;21.60;10.52;;;3.90;81.40;;;;;;5032033;28;20093;-70
2022/03/07 06:22:07;;;;;;;22.08;9.77;;;4.00;81.50;;;;;;5031822;28;20013;-72
2022/03/07 06:24:33;;;;;;;18.80;9.80;;;4.00;81.80;;;;;;5031051;28;20030;-71
2022/03/07 06:27:26;;;;;;;19.85;9.73;;;4.00;81.90;;;;;;5031706;28;20491;-70
2022/03/07 06:29:52;;;;;;;17.38;9.70;;;4.00;82.20;;;;;;5031695;28;20104;-70
2022/03/07 06:32:17;;;;;;;24.23;9.30;;;4.00;82.30;;;;;;5030371;28;20170;-70
2022/03/07 06:34:43;;;;;;;18.55;9.10;;;4.00;82.60;;;;;;5031346;28;20087;-71
2022/03/07 06:37:16;;;;;;;19.10;10.95;;;4.00;82.70;;;;;;5031688;28;20320;-70
2022/03/07 06:39:42;;;;;;;21.17;10.40;;;4.00;82.60;;;;;;5031487;28;20267;-71
2022/03/07 06:46:19;;;;;;;21.88;9.85;;;4.10;82.90;;;;;;5006404;28;20060;-72
2022/03/07 06:48:44;;;;;;;24.23;9.23;;;4.20;83.30;;;;;;5031133;28;20049;-71
2022/03/07 06:51:10;;;;;;;17.98;10.20;;;4.10;83.70;;;;;;5031754;28;20040;-70
2022/03/07 06:53:36;;;;;;;19.58;10.43;;;4.10;84.10;;;;;;5031039;28;20037;-71
2022/03/07 06:56:04;;;;;;;18.75;9.75;;;4.10;84.50;;;;;;5030149;28;20052;-72
2022/03/07 06:58:30;;;;;;;21.95;10.48;;;4.20;84.70;;;;;;5031167;28;20411;-70
2022/03/07 07:00:55;;;;;;;26.63;10.73;;;4.20;84.90;;;;;;5030916;28;20489;-70
2022/03/07 07:03:21;;;;;;;20.88;11.13;;;4.20;85.10;;;;;;5030424;28;20022;-71
2022/03/07 07:05:47;;;;;;;29.58;10.70;;;4.20;85.10;;;;;;5030991;28;20095;-70
2022/03/07 07:08:12;;;;;;;29.42;12.02;;;4.30;85.60;;;;;;5030873;28;20471;-72
2022/03/07 07:10:38;;;;;;;22.08;11.27;;;4.30;85.70;;;;;;5030983;28;20094;-71
2022/03/07 07:13:03;;;;;;;20.65;10.55;;;4.30;85.70;;;;;;5031030;28;20029;-70
2022/03/07 07:15:29;;;;;;;20.00;11.15;;;4.40;86.00;;;;;;5031299;28;20034;-69
2022/03/07 07:17:54;;;;;;;19.70;11.50;;;4.40;85.80;;;;;;5030873;28;20295;-71
2022/03/07 07:20:20;;;;;;;23.85;12.45;;;4.40;86.30;;;;;;5030811;28;20034;-71
2022/03/07 07:22:45;;;;;;;20.02;11.18;;;4.50;87.10;;;;;;5030817;28;20033;-70
2022/03/07 07:25:11;;;;;;;24.10;12.15;;;4.40;87.20;;;;;;5030510;28;20064;-73
2022/03/07 07:27:38;;;;;;;24.48;11.73;;;4.40;87.30;;;;;;5031099;28;20105;-74
2022/03/07 07:30:07;;;;;;;28.45;11.13;;;4.40;87.60;;;;;;5030648;28;20037;-74
2022/03/07 07:32:33;;;;;;;22.63;11.70;;;4.50;88.00;;;;;;5030992;28;20471;-75
2022/03/07 07:34:58;;;;;;;25.08;12.57;;;4.50;88.00;;;;;;5030361;28;20036;-73
2022/03/07 07:37:24;;;;;;;24.73;11.77;;;4.50;88.30;;;;;;5030469;28;20533;-71
2022/03/07 07:39:49;;;;;;;27.42;12.32;;;4.50;89.00;;;;;;5030475;28;20403;-72
2022/03/07 07:42:15;;;;;;;24.15;11.50;;;4.60;88.80;;;;;;5031021;28;20403;-72
2022/03/07 07:44:41;;;;;;;24.20;11.52;;;4.60;88.70;;;;;;5030595;28;20036;-73
2022/03/07 07:47:09;;;;;;;23.70;12.68;;;4.70;88.80;;;;;;5030117;28;20129;-71
2022/03/07 07:49:36;;;;;;;24.38;11.40;;;4.70;88.90;;;;;;5031391;28;20041;-69
2022/03/07 07:52:02;;;;;;;22.35;11.88;;;4.70;89.00;;;;;;5029828;28;20044;-71
2022/03/07 07:54:30;;;;;;;24.58;12.48;;;4.80;89.00;;;;;;5030712;28;20489;-71
2022/03/07 07:56:56;;;;;;;26.52;12.85;;;4.80;89.20;;;;;;5029982;28;20057;-71
2022/03/07 07:59:21;;;;;;;24.00;11.80;;;4.80;89.00;;;;;;5030161;28;20057;-70
2022/03/07 08:01:47;;;;;;;26.33;12.63;;;4.90;89.00;;;;;;5029243;28;20585;-72
2022/03/07 08:04:12;;;;;;;30.80;12.05;;;4.90;89.00;;;;;;5030295;28;20467;-71
2022/03/07 08:06:39;;;;;;;22.98;11.93;;;4.90;88.70;;;;;;5030361;28;20474;-71
2022/03/07 08:09:05;;;;;;;31.93;11.03;;;4.90;89.00;;;;;;5029270;28;20088;-71
2022/03/07 08:11:31;;;;;;;21.73;12.07;;;4.90;89.20;;;;;;5030285;28;20025;-71
2022/03/07 08:13:56;;;;;;;31.42;13.60;;;5.00;89.20;;;;;;5030452;28;20139;-73
2022/03/07 08:16:22;;;;;;;28.42;12.45;;;5.10;89.00;;;;;;5030627;28;20038;-72
2022/03/07 08:18:48;;;;;;;23.38;12.43;;;5.10;89.60;;;;;;5029452;28;20029;-71
2022/03/07 08:21:13;;;;;;;22.27;12.40;;;5.10;90.10;;;;;;5030783;28;20028;-70
2022/03/07 08:23:39;;;;;;;22.45;12.20;;;5.10;90.10;;;;;;5030733;28;20125;-72
2022/03/07 08:26:05;;;;;;;26.67;12.13;;;5.20;90.10;;;;;;5031211;28;20098;-72
2022/03/07 08:28:31;;;;;;;28.73;12.48;;;5.20;90.10;;;;;;5030538;28;20025;-73
2022/03/07 08:30:57;;;;;;;29.35;12.05;;;5.30;90.00;;;;;;5029866;28;20047;-71
2022/03/07 08:33:23;;;;;;;22.73;12.02;;;5.30;90.00;;;;;;5030282;28;20040;-70
2022/03/07 08:35:50;;;;;;;26.23;12.80;;;5.30;90.00;;;;;;5030297;28;20041;-72
2022/03/07 08:38:16;;;;;;;26.38;11.60;;;5.40;89.90;;;;;;5030375;28;20030;-71
2022/03/07 08:40:42;;;;;;;27.77;13.23;;;5.50;90.00;;;;;;5028690;28;20501;-72
2022/03/07 08:43:07;;;;;;;22.55;12.43;;;5.40;89.90;;;;;;5029856;28;20331;-71
2022/03/07 08:45:33;;;;;;;25.58;11.25;;;5.40;90.10;;;;;;5029914;28;20053;-72
2022/03/07 08:47:59;;;;;;;26.13;12.05;;;5.50;90.40;;;;;;5029770;28;20085;-71
2022/03/07 08:50:27;;;;;;;22.77;11.93;;;5.60;90.40;;;;;;5029845;28;20349;-72
2022/03/07 08:52:53;;;;;;;27.85;12.85;;;5.70;90.40;;;;;;5028476;28;20037;-73
2022/03/07 08:55:18;;;;;;;20.58;12.00;;;5.80;90.30;;;;;;5029670;28;20033;-72
2022/03/07 08:57:44;;;;;;;31.40;13.55;;;5.90;90.30;;;;;;5029579;28;20024;-72
2022/03/07 09:00:12;;;;;;;27.90;13.05;;;6.10;90.10;;;;;;5029019;28;20264;-72
2022/03/07 09:02:38;;;;;;;21.88;12.07;;;7.00;89.40;;;;;;5030217;28;20065;-73
2022/03/07 09:05:05;;;;;;;24.80;11.52;;;8.70;85.70;;;;;;5030042;28;20049;-73
2022/03/07 09:07:30;;;;;;;18.98;11.10;;;10.60;78.80;;;;;;5029119;28;20472;-73
2022/03/07 09:09:59;;;;;;;25.88;11.77;;;11.60;74.90;;;;;;5031073;28;20039;-74
2022/03/07 09:12:27;;;;;;;24.98;13.00;;;12.80;72.20;;;;;;5033152;28;20136;-71
2022/03/07 09:15:01;;;;;;;22.60;12.20;;;13.70;68.50;;;;;;5031853;28;20120;-75
2022/03/07 09:17:27;;;;;;;19.95;10.80;;;14.50;65.70;;;;;;5033172;28;20033;-73
2022/03/07 09:19:56;;;;;;;23.83;11.93;;;15.30;64.40;;;;;;5033489;28;20056;-71
2022/03/07 09:22:21;;;;;;;27.05;12.98;;;15.60;61.90;;;;;;5033204;28;20053;-72
2022/03/07 09:24:47;;;;;;;24.42;13.70;;;16.40;60.20;;;;;;5033133;28;20060;-70
2022/03/07 09:27:12;;;;;;;26.17;14.00;;;16.60;59.30;;;;;;5032179;28;20033;-71
2022/03/07 09:29:38;;;;;;;22.75;13.57;;;17.10;58.10;;;;;;5033290;28;20053;-71
2022/03/07 09:32:05;;;;;;;19.75;12.63;;;17.10;57.00;;;;;;5033225;28;20026;-73
2022/03/07 09:34:32;;;;;;;25.85;12.60;;;17.00;56.10;;;;;;5032131;28;20374;-72
2022/03/07 09:36:57;;;;;;;20.77;13.55;;;17.30;55.80;;;;;;5032713;28;20029;-71
2022/03/07 09:39:23;;;;;;;23.92;12.43;;;17.60;55.10;;;;;;5033202;28;20121;-73
2022/03/07 09:41:48;;;;;;;23.27;12.88;;;18.00;54.30;;;;;;5032385;28;20048;-72
2022/03/07 09:44:14;;;;;;;18.92;12.07;;;18.00;54.10;;;;;;5032509;28;20112;-73
2022/03/07 09:46:40;;;;;;;21.98;12.18;;;18.80;53.60;;;;;;5032502;28;20077;-75
2022/03/07 09:49:05;;;;;;;25.15;14.32;;;19.40;52.00;;;;;;5032460;28;20034;-74
2022/03/07 09:51:31;;;;;;;26.33;16.55;;;19.40;51.60;;;;;;5031420;28;20033;-75
2022/03/07 09:53:57;;;;;;;25.95;16.20;;;19.40;50.90;;;;;;5032154;28;20033;-76
2022/03/07 09:56:23;;;;;;;34.42;16.52;;;19.10;51.40;;;;;;5032612;28;20041;-74
2022/03/07 09:58:49;;;;;;;29.77;17.70;;;19.60;50.60;;;;;;5032359;28;20029;-72
2022/03/07 10:01:19;;;;;;;37.22;20.83;;;19.30;50.60;;;;;;5032499;28;20056;-73
2022/03/07 10:03:46;;;;;;;34.25;17.85;;;19.40;50.80;;;;;;5032214;28;20022;-72
2022/03/07 10:06:17;;;;;;;32.05;19.70;;;19.80;49.80;;;;;;5033699;28;20057;-73
2022/03/07 10:08:58;;;;;;;31.23;18.92;;;20.00;49.20;;;;;;5033668;28;20068;-74
2022/03/07 10:11:26;;;;;;;39.38;18.63;;;20.30;48.90;;;;;;5032063;28;20035;-73
2022/03/07 10:14:00;;;;;;;28.52;17.45;;;20.60;48.30;;;;;;5033174;28;20076;-73
2022/03/07 10:16:37;;;;;;;34.08;19.00;;;20.50;47.60;;;;;;5032875;28;20029;-74
2022/03/07 10:19:07;;;;;;;35.15;19.92;;;19.40;47.60;;;;;;5030726;28;20044;-73
2022/03/07 10:21:32;;;;;;;31.90;19.20;;;20.00;48.10;;;;;;5032422;28;20239;-73
2022/03/07 10:23:58;;;;;;;32.97;19.40;;;20.50;47.80;;;;;;5031691;28;20459;-76
2022/03/07 10:26:24;;;;;;;30.60;18.88;;;19.80;46.50;;;;;;5031807;28;20359;-74
2022/03/07 10:28:55;;;;;;;33.97;19.15;;;20.30;47.60;;;;;;5031738;28;20491;-72
2022/03/07 10:31:21;;;;;;;32.45;17.40;;;21.20;46.60;;;;;;5031982;28;20033;-72
2022/03/07 10:33:58;;;;;;;27.02;16.98;;;21.70;46.30;;;;;;5032360;28;20018;-72
2022/03/07 10:36:34;;;;;;;26.70;15.10;;;20.70;46.00;;;;;;5032000;28;20455;-73
2022/03/07 10:39:00;;;;;;;25.48;15.63;;;20.80;47.10;;;;;;5032373;28;20038;-73
2022/03/07 10:41:39;;;;;;;19.50;13.15;;;20.90;47.00;;;;;;5033001;28;20443;-75
2022/03/07 10:44:07;;;;;;;23.42;13.63;;;20.20;45.50;;;;;;5031801;28;20030;-74
2022/03/07 10:46:33;;;;;;;28.63;14.70;;;19.60;45.90;;;;;;5030386;28;20128;-74
2022/03/07 10:48:59;;;;;;;21.58;14.13;;;21.10;46.70;;;;;;5032333;28;20136;-72
2022/03/07 10:51:25;;;;;;;22.20;12.15;;;21.20;45.60;;;;;;5031102;28;20561;-73
2022/03/07 10:53:52;;;;;;;18.00;11.77;;;22.10;45.10;;;;;;5031608;28;20034;-74
2022/03/07 10:56:21;;;;;;;21.83;13.13;;;22.10;44.10;;;;;;5031454;28;20578;-73
2022/03/07 10:58:49;;;;;;;23.40;11.77;;;22.00;44.70;;;;;;5030956;28;20030;-73
2022/03/07 11:01:14;;;;;;;;;;;22.40;43.80;;;;;;5031122;28;20375;-73
2022/03/07 11:03:40;;;;;;;23.08;12.32;;;22.00;44.40;;;;;;5031216;28;19916;-72
2022/03/07 11:06:06;;;;;;;19.75;11.93;;;21.60;44.60;;;;;;5031638;28;20462;-72
2022/03/07 11:08:31;;;;;;;20.17;12.45;;;21.60;44.70;;;;;;5031119;28;20037;-73
2022/03/07 11:11:00;;;;;;;24.45;13.13;;;21.50;44.50;;;;;;5030192;28;20503;-70
2022/03/07 11:13:29;;;;;;;21.38;12.93;;;21.40;44.80;;;;;;5030774;28;20442;-71
2022/03/07 11:15:56;;;;;;;17.58;12.40;;;21.00;44.30;;;;;;5030886;28;20025;-70
2022/03/07 11:18:23;;;;;;;22.20;13.05;;;21.40;44.90;;;;;;5031476;28;20040;-76
2022/03/07 11:20:49;;;;;;;21.35;14.25;;;21.60;44.60;;;;;;5031774;28;20033;-75
2022/03/07 11:23:23;;;;;;;17.80;12.30;;;21.60;44.30;;;;;;5032012;28;20091;-73
2022/03/07 11:25:55;;;;;;;18.17;11.98;;;21.80;44.30;;;;;;5030902;28;20125;-73
2022/03/07 11:28:23;;;;;;;20.38;11.73;;;21.60;44.40;;;;;;5031272;28;20113;-74
2022/03/07 11:30:49;;;;;;;17.20;11.10;;;21.30;44.20;;;;;;5030469;28;20033;-70
2022/03/07 11:33:19;;;;;;;29.38;12.95;;;20.00;46.70;;;;;;5030346;28;20053;-69
2022/03/07 11:35:49;;;;;;;20.38;12.02;;;20.40;46.30;;;;;;5030393;28;20030;-72
2022/03/07 11:38:23;;;;;;;19.08;12.38;;;20.50;45.30;;;;;;5030462;28;20026;-72
2022/03/07 11:40:57;;;;;;;23.02;12.52;;;20.00;46.00;;;;;;5030358;28;20056;-72
2022/03/07 11:43:25;;;;;;;22.08;12.05;;;19.60;46.00;;;;;;5030572;28;20064;-75
2022/03/07 11:45:52;;;;;;;18.88;11.30;;;19.40;46.40;;;;;;5030366;28;20022;-74
2022/03/07 11:48:18;;;;;;;19.10;11.52;;;18.60;46.70;;;;;;5030922;28;20050;-73
2022/03/07 11:50:45;;;;;;;18.42;11.43;;;18.10;47.60;;;;;;5030488;28;20033;-73
2022/03/07 11:53:10;;;;;;;23.23;11.70;;;17.50;48.00;;;;;;5029174;28;20649;-74
2022/03/07 11:55:45;;;;;;;22.63;11.95;;;16.90;48.80;;;;;;5030196;28;20045;-70
2022/03/07 11:58:10;;;;;;;16.83;10.05;;;16.50;50.00;;;;;;5030164;28;20037;-71
2022/03/07 12:00:36;;;;;;;17.38;10.15;;;16.00;51.10;;;;;;5030464;28;20343;-74
2022/03/07 12:03:16;;;;;;;22.50;11.65;;;15.50;51.00;;;;;;5030708;28;20084;-74
2022/03/07 12:05:43;;;;;;;16.45;10.10;;;15.10;51.90;;;;;;5031589;28;20025;-76
2022/03/07 12:08:17;;;;;;;23.08;10.55;;;14.80;52.00;;;;;;5031774;28;20029;-76
2022/03/07 12:10:57;;;;;;;20.13;11.05;;;14.30;52.40;;;;;;5032219;28;20040;-75
2022/03/07 12:13:23;;;;;;;19.73;9.52;;;14.00;52.80;;;;;;5031095;28;20491;-78
2022/03/07 12:15:53;;;;;;;23.08;9.55;;;13.80;53.20;;;;;;5032060;28;20057;-76
2022/03/07 12:18:19;;;;;;;17.67;10.63;;;13.70;53.40;;;;;;5032001;28;20020;-73
2022/03/07 12:20:49;;;;;;;18.25;10.70;;;13.60;53.50;;;;;;5029892;28;20065;-73
2022/03/07 12:23:20;;;;;;;16.45;9.27;;;13.20;54.40;;;;;;5031279;28;20034;-75
2022/03/07 12:25:46;;;;;;;16.90;9.40;;;13.10;54.40;;;;;;5030090;28;20041;-75
2022/03/07 12:28:12;;;;;;;16.73;9.15;;;13.10;54.60;;;;;;5029962;28;20037;-74
2022/03/07 12:30:38;;;;;;;20.48;10.45;;;13.00;54.50;;;;;;5031170;28;20030;-76
2022/03/07 12:33:11;;;;;;;18.40;9.75;;;13.00;55.00;;;;;;5030581;28;20049;-76
2022/03/07 12:35:37;;;;;;;19.52;8.57;;;12.90;55.00;;;;;;5030793;28;20115;-76
2022/03/07 12:38:09;;;;;;;16.98;9.18;;;12.60;54.80;;;;;;5031178;28;20045;-76
2022/03/07 12:40:37;;;;;;;17.50;9.02;;;12.70;55.20;;;;;;5031533;28;20172;-77
2022/03/07 12:43:04;;;;;;;18.10;9.38;;;12.50;55.60;;;;;;5030221;28;20026;-72
2022/03/07 12:45:30;;;;;;;22.73;8.48;;;12.30;55.80;;;;;;5033138;28;20096;-72
2022/03/07 12:47:55;;;;;;;12.93;7.15;;;12.30;55.90;;;;;;5036348;28;20057;-75
2022/03/07 12:50:26;;;;;;;15.07;7.45;;;12.30;55.10;;;;;;5033076;28;20030;-74
2022/03/07 12:52:52;;;;;;;12.98;7.03;;;12.40;55.00;;;;;;5034409;28;20056;-76